createdAt,value
2018-12-12T00:01:19.561Z,31.40
2018-12-12T00:03:52.240Z,31.02
2018-12-12T00:06:24.874Z,31.07
2018-12-12T00:08:55.591Z,31.45
2018-12-12T00:11:26.138Z,32.67
2018-12-12T00:13:57.031Z,33.67
2018-12-12T00:16:27.553Z,36.23
2018-12-12T00:18:58.029Z,39.25
2018-12-12T00:21:29.055Z,37.45
2018-12-12T00:23:59.413Z,37.00
2018-12-12T00:26:30.015Z,33.30
2018-12-12T00:29:00.727Z,41.28
2018-12-12T00:31:31.424Z,36.65
2018-12-12T00:34:02.379Z,37.25
2018-12-12T00:36:33.445Z,38.65
2018-12-12T00:39:06.000Z,41.55
2018-12-12T00:41:38.103Z,39.38
2018-12-12T00:44:08.819Z,37.75
2018-12-12T00:46:39.563Z,35.90
2018-12-12T00:49:10.600Z,34.92
2018-12-12T00:51:41.048Z,35.70
2018-12-12T00:54:11.905Z,36.83
2018-12-12T00:56:42.523Z,35.73
2018-12-12T00:59:13.144Z,34.53
2018-12-12T01:01:43.638Z,37.63
2018-12-12T01:04:14.249Z,39.38
2018-12-12T01:06:45.064Z,38.70
2018-12-12T01:09:15.749Z,39.33
2018-12-12T01:11:51.096Z,40.12
2018-12-12T01:14:21.653Z,40.28
2018-12-12T01:16:52.393Z,38.90
2018-12-12T01:19:22.896Z,41.15
2018-12-12T01:21:53.460Z,45.73
2018-12-12T01:24:24.210Z,43.75
2018-12-12T01:26:54.835Z,45.03
2018-12-12T01:29:25.499Z,47.23
2018-12-12T01:31:56.227Z,47.17
2018-12-12T01:34:27.096Z,41.80
2018-12-12T01:36:58.213Z,42.08
2018-12-12T01:39:29.487Z,51.02
2018-12-12T01:42:00.865Z,48.38
2018-12-12T01:44:31.703Z,66.22
2018-12-12T01:47:02.121Z,57.27
2018-12-12T01:49:32.868Z,58.60
2018-12-12T01:52:03.329Z,59.80
2018-12-12T01:54:33.853Z,61.83
2018-12-12T01:57:04.194Z,60.03
2018-12-12T01:59:34.929Z,64.20
2018-12-12T02:02:05.581Z,61.53
2018-12-12T02:04:35.951Z,54.18
2018-12-12T02:07:06.550Z,56.30
2018-12-12T02:09:37.038Z,57.13
2018-12-12T02:12:07.788Z,54.93
2018-12-12T02:14:38.855Z,54.42
2018-12-12T02:17:09.610Z,47.40
2018-12-12T02:19:40.300Z,47.13
2018-12-12T02:22:10.908Z,46.68
2018-12-12T02:24:41.184Z,47.80
2018-12-12T02:27:11.903Z,53.65
2018-12-12T02:29:42.465Z,46.70
2018-12-12T02:32:13.175Z,41.58
2018-12-12T02:34:43.854Z,50.48
2018-12-12T02:37:14.682Z,40.52
2018-12-12T02:39:45.549Z,40.85
2018-12-12T02:42:16.168Z,37.50
2018-12-12T02:44:46.831Z,35.00
2018-12-12T02:47:17.386Z,37.00
2018-12-12T02:49:47.999Z,41.40
2018-12-12T02:52:18.741Z,44.95
2018-12-12T02:54:49.286Z,43.98
2018-12-12T02:57:19.802Z,44.13
2018-12-12T02:59:50.277Z,49.15
2018-12-12T03:02:20.856Z,50.15
2018-12-12T03:04:52.108Z,47.15
2018-12-12T03:07:23.120Z,50.65
2018-12-12T03:09:53.621Z,59.90
2018-12-12T03:12:24.265Z,54.15
2018-12-12T03:14:54.707Z,46.73
2018-12-12T03:17:25.411Z,53.17
2018-12-12T03:19:55.962Z,52.40
2018-12-12T03:22:26.273Z,55.28
2018-12-12T03:24:56.875Z,51.88
2018-12-12T03:27:27.337Z,52.23
2018-12-12T03:29:58.147Z,50.43
2018-12-12T03:32:28.961Z,51.80
2018-12-12T03:34:59.697Z,51.70
2018-12-12T03:37:30.441Z,50.60
2018-12-12T03:40:01.606Z,51.63
2018-12-12T03:42:32.626Z,59.35
2018-12-12T03:45:03.105Z,52.60
2018-12-12T03:47:33.849Z,70.00
2018-12-12T03:50:04.721Z,63.28
2018-12-12T03:52:35.858Z,66.47
2018-12-12T03:55:07.204Z,57.00
2018-12-12T03:57:37.862Z,59.53
2018-12-12T04:00:09.525Z,52.23
2018-12-12T04:02:41.188Z,54.58
2018-12-12T04:05:11.733Z,55.52
2018-12-12T04:07:42.519Z,54.00
2018-12-12T04:10:13.053Z,55.73
2018-12-12T04:12:43.877Z,53.87
2018-12-12T04:15:14.549Z,58.65
2018-12-12T04:17:45.148Z,66.25
2018-12-12T04:20:16.084Z,55.25
2018-12-12T04:22:46.792Z,65.90
2018-12-12T04:25:17.436Z,64.05
2018-12-12T04:27:48.009Z,64.05
2018-12-12T04:30:18.570Z,61.02
2018-12-12T04:32:49.487Z,57.78
2018-12-12T04:35:20.362Z,57.48
2018-12-12T04:37:50.913Z,56.13
2018-12-12T04:40:21.476Z,65.28
2018-12-12T04:42:52.159Z,69.00
2018-12-12T04:45:22.689Z,60.40
2018-12-12T04:47:53.218Z,57.50
2018-12-12T04:50:23.666Z,52.85
2018-12-12T04:52:54.219Z,71.42
2018-12-12T04:55:25.046Z,75.87
2018-12-12T04:57:55.742Z,56.23
2018-12-12T05:00:26.502Z,57.45
2018-12-12T05:02:57.591Z,54.20
2018-12-12T05:05:28.218Z,55.90
2018-12-12T05:07:58.706Z,48.87
2018-12-12T05:10:29.507Z,44.10
2018-12-12T05:13:00.349Z,50.35
2018-12-12T05:15:31.349Z,64.87
2018-12-12T05:18:01.888Z,80.25
2018-12-12T05:20:32.526Z,95.62
2018-12-12T05:23:03.194Z,96.87
2018-12-12T05:25:34.493Z,93.37
2018-12-12T05:28:05.066Z,101.12
2018-12-12T05:30:35.601Z,108.87
2018-12-12T05:33:06.356Z,117.72
2018-12-12T05:35:36.794Z,116.08
2018-12-12T05:38:07.324Z,123.82
2018-12-12T05:40:39.210Z,143.68
2018-12-12T05:43:09.836Z,140.52
2018-12-12T05:45:40.749Z,151.35
2018-12-12T05:48:11.488Z,161.50
2018-12-12T05:50:42.027Z,163.20
2018-12-12T05:53:13.171Z,140.90
2018-12-12T05:55:43.857Z,119.60
2018-12-12T05:58:14.668Z,105.17
2018-12-12T06:00:45.354Z,96.28
2018-12-12T06:03:15.999Z,116.45
2018-12-12T06:05:46.910Z,84.83
2018-12-12T06:08:17.744Z,59.55
2018-12-12T06:10:48.507Z,54.93
2018-12-12T06:13:19.730Z,59.30
2018-12-12T06:15:50.440Z,79.82
2018-12-12T06:18:21.790Z,73.45
2018-12-12T06:20:52.273Z,77.87
2018-12-12T06:23:22.742Z,75.32
2018-12-12T06:25:53.510Z,74.27
2018-12-12T06:28:23.925Z,74.30
2018-12-12T06:30:54.578Z,103.25
2018-12-12T06:33:24.960Z,99.35
2018-12-12T06:35:55.701Z,95.20
2018-12-12T06:38:26.363Z,82.37
2018-12-12T06:40:57.045Z,74.72
2018-12-12T06:43:27.627Z,77.82
2018-12-12T06:45:58.776Z,77.92
2018-12-12T06:48:29.594Z,93.37
2018-12-12T06:51:00.321Z,96.25
2018-12-12T06:53:31.095Z,102.30
2018-12-12T06:56:02.110Z,119.20
2018-12-12T06:58:32.819Z,110.42
2018-12-12T07:01:03.681Z,133.37
2018-12-12T07:03:34.376Z,126.67
2018-12-12T07:06:05.083Z,128.82
2018-12-12T07:08:36.043Z,129.93
2018-12-12T07:11:06.842Z,126.60
2018-12-12T07:13:37.600Z,139.45
2018-12-12T07:16:08.297Z,156.15
2018-12-12T07:18:39.113Z,180.52
2018-12-12T07:21:09.857Z,237.82
2018-12-12T07:23:40.565Z,173.05
2018-12-12T07:26:11.242Z,184.35
2018-12-12T07:28:41.714Z,145.65
2018-12-12T07:31:18.539Z,153.87
2018-12-12T07:33:49.301Z,121.97
2018-12-12T07:36:20.024Z,122.78
2018-12-12T07:38:51.046Z,110.30
2018-12-12T07:41:21.586Z,93.55
2018-12-12T07:43:54.552Z,92.45
2018-12-12T07:46:43.273Z,96.35
2018-12-12T07:49:16.153Z,111.50
2018-12-12T07:52:06.580Z,102.67
2018-12-12T07:54:37.539Z,111.17
2018-12-12T07:57:08.304Z,102.05
2018-12-12T07:59:39.161Z,107.35
2018-12-12T08:02:09.966Z,111.35
2018-12-12T08:04:40.700Z,109.65
2018-12-12T08:07:11.612Z,124.33
2018-12-12T08:09:42.610Z,128.02
2018-12-12T08:12:13.434Z,113.12
2018-12-12T08:14:43.996Z,120.67
2018-12-12T08:17:14.996Z,128.78
2018-12-12T08:19:45.530Z,121.45
2018-12-12T08:22:16.003Z,127.17
2018-12-12T08:24:46.814Z,124.40
2018-12-12T08:27:17.154Z,133.67
2018-12-12T08:29:47.835Z,117.47
2018-12-12T08:32:18.534Z,56.60
2018-12-12T08:34:49.345Z,41.02
2018-12-12T08:37:19.832Z,26.35
2018-12-12T08:39:50.689Z,13.68
2018-12-12T08:42:21.436Z,8.30
2018-12-12T08:44:52.067Z,8.65
2018-12-12T08:47:22.719Z,15.15
2018-12-12T08:49:53.503Z,36.05
2018-12-12T08:52:24.267Z,35.08
2018-12-12T08:54:54.871Z,25.75
2018-12-12T08:57:25.593Z,28.47
2018-12-12T08:59:56.194Z,47.62
2018-12-12T09:02:26.669Z,24.82
2018-12-12T09:04:57.257Z,30.52
2018-12-12T09:07:28.276Z,30.85
2018-12-12T09:09:58.944Z,31.65
2018-12-12T09:12:30.749Z,21.85
2018-12-12T09:15:01.386Z,37.65
2018-12-12T09:17:31.793Z,55.17
2018-12-12T09:20:03.582Z,48.87
2018-12-12T09:22:34.186Z,49.60
2018-12-12T09:25:04.817Z,47.67
2018-12-12T09:27:35.571Z,62.98
2018-12-12T09:30:08.517Z,56.98
2018-12-12T09:32:41.285Z,54.05
2018-12-12T09:35:30.846Z,92.85
2018-12-12T09:38:02.104Z,52.20
2018-12-12T09:40:33.869Z,76.07
2018-12-12T09:43:04.366Z,63.30
2018-12-12T09:45:35.234Z,51.92
2018-12-12T09:48:05.948Z,57.27
2018-12-12T09:50:36.474Z,75.42
2018-12-12T09:53:09.319Z,63.70
2018-12-12T09:55:40.411Z,42.45
2018-12-12T09:58:11.141Z,43.52
2018-12-12T10:00:42.144Z,53.23
2018-12-12T10:03:12.531Z,46.33
2018-12-12T10:05:43.156Z,66.85
2018-12-12T10:08:16.315Z,77.95
2018-12-12T10:10:47.430Z,74.37
2018-12-12T10:13:18.105Z,76.50
2018-12-12T10:15:49.058Z,48.52
2018-12-12T10:18:19.785Z,24.85
2018-12-12T10:20:50.719Z,43.55
2018-12-12T10:23:21.075Z,49.20
2018-12-12T10:25:51.812Z,38.73
2018-12-12T10:28:22.370Z,31.77
2018-12-12T10:30:52.834Z,22.82
2018-12-12T10:33:23.772Z,22.42
2018-12-12T10:35:54.545Z,19.15
2018-12-12T10:38:25.582Z,18.70
2018-12-12T10:40:56.353Z,25.45
2018-12-12T10:43:27.086Z,18.67
2018-12-12T10:45:57.994Z,22.45
2018-12-12T10:48:28.762Z,24.10
2018-12-12T10:50:59.623Z,22.62
2018-12-12T10:53:30.357Z,22.85
2018-12-12T10:56:01.145Z,21.68
2018-12-12T10:58:31.845Z,19.15
2018-12-12T11:01:07.695Z,24.85
2018-12-12T11:03:44.142Z,26.27
2018-12-12T11:06:14.071Z,35.05
2018-12-12T11:08:45.005Z,18.70
2018-12-12T11:11:15.922Z,23.12
2018-12-12T11:13:46.603Z,19.50
2018-12-12T11:16:17.303Z,24.37
2018-12-12T11:18:48.290Z,21.97
2018-12-12T11:21:19.033Z,20.62
2018-12-12T11:23:49.724Z,22.65
2018-12-12T11:26:20.399Z,17.32
2018-12-12T11:28:51.378Z,20.85
2018-12-12T11:31:22.012Z,21.77
2018-12-12T11:33:52.835Z,51.28
2018-12-12T11:36:23.279Z,34.08
2018-12-12T11:38:53.864Z,50.25
2018-12-12T11:41:24.660Z,48.45
2018-12-12T11:43:55.539Z,44.67
2018-12-12T11:46:26.260Z,31.70
2018-12-12T11:48:57.102Z,46.80
2018-12-12T11:51:27.579Z,20.52
2018-12-12T11:53:58.405Z,48.58
2018-12-12T11:56:28.976Z,29.12
2018-12-12T11:58:59.560Z,61.53
2018-12-12T12:01:30.312Z,64.65
2018-12-12T12:04:00.817Z,46.05
2018-12-12T12:06:31.783Z,47.83
2018-12-12T12:09:02.387Z,60.58
2018-12-12T12:11:32.967Z,32.50
2018-12-12T12:14:05.907Z,53.58
2018-12-12T12:16:36.666Z,76.47
2018-12-12T12:19:07.020Z,67.47
2018-12-12T12:21:37.868Z,81.80
2018-12-12T12:24:09.038Z,75.67
2018-12-12T12:26:39.817Z,59.53
2018-12-12T12:29:10.383Z,59.25
2018-12-12T12:31:41.195Z,44.90
2018-12-12T12:34:11.956Z,35.33
2018-12-12T12:36:42.643Z,27.00
2018-12-12T12:39:13.135Z,30.00
2018-12-12T12:41:43.929Z,29.55
2018-12-12T12:44:14.374Z,57.00
2018-12-12T12:46:45.414Z,37.20
2018-12-12T12:49:15.983Z,37.40
2018-12-12T12:51:46.500Z,37.38
2018-12-12T12:54:17.068Z,37.65
2018-12-12T12:56:47.672Z,47.70
2018-12-12T12:59:18.113Z,46.28
2018-12-12T13:01:48.844Z,50.05
2018-12-12T13:04:19.437Z,49.35
2018-12-12T13:06:50.511Z,47.08
2018-12-12T13:09:20.981Z,44.23
2018-12-12T13:11:51.510Z,55.92
2018-12-12T13:14:22.182Z,66.00
2018-12-12T13:16:52.934Z,81.02
2018-12-12T13:19:23.755Z,67.50
2018-12-12T13:21:54.680Z,69.65
2018-12-12T13:24:25.423Z,48.63
2018-12-12T13:26:56.179Z,51.70
2018-12-12T13:29:26.872Z,68.37
2018-12-12T13:31:57.427Z,67.15
2018-12-12T13:34:28.006Z,37.45
2018-12-12T13:36:58.829Z,31.57
2018-12-12T13:39:29.667Z,32.05
2018-12-12T13:42:02.578Z,26.60
2018-12-12T13:44:33.170Z,26.33
2018-12-12T13:47:04.232Z,29.00
2018-12-12T13:49:35.046Z,46.08
2018-12-12T13:52:05.608Z,40.70
2018-12-12T13:54:36.233Z,35.33
2018-12-12T13:57:06.964Z,25.88
2018-12-12T13:59:37.331Z,21.17
2018-12-12T14:02:09.276Z,15.35
2018-12-12T14:04:39.952Z,15.10
2018-12-12T14:07:10.556Z,19.20
2018-12-12T14:09:41.221Z,66.22
2018-12-12T14:12:17.383Z,77.32
2018-12-12T14:14:45.676Z,46.63
2018-12-12T14:17:16.989Z,40.92
2018-12-12T14:19:47.589Z,45.85
2018-12-12T14:22:18.445Z,31.07
2018-12-12T14:24:49.061Z,39.13
2018-12-12T14:27:19.834Z,25.97
2018-12-12T14:29:50.340Z,26.15
2018-12-12T14:32:21.133Z,23.83
2018-12-12T14:34:51.557Z,20.35
2018-12-12T14:37:22.170Z,18.90
2018-12-12T14:39:52.920Z,16.65
2018-12-12T14:42:23.699Z,16.73
2018-12-12T14:45:01.944Z,30.55
2018-12-12T14:47:34.095Z,49.45
2018-12-12T14:50:04.975Z,43.20
2018-12-12T14:52:35.771Z,34.03
2018-12-12T14:55:07.687Z,31.52
2018-12-12T14:57:38.832Z,34.13
2018-12-12T15:00:09.632Z,29.75
2018-12-12T15:02:40.181Z,27.82
2018-12-12T15:05:10.836Z,27.98
2018-12-12T15:07:41.897Z,27.37
2018-12-12T15:10:12.745Z,37.75
2018-12-12T15:12:43.590Z,92.90
2018-12-12T15:15:14.516Z,79.82
2018-12-12T15:17:45.512Z,47.78
2018-12-12T15:20:16.632Z,43.45
2018-12-12T15:22:47.513Z,35.35
2018-12-12T15:25:18.204Z,26.68
2018-12-12T15:27:48.962Z,29.48
2018-12-12T15:30:19.491Z,28.50
2018-12-12T15:32:51.224Z,27.95
2018-12-12T15:35:21.836Z,28.05
2018-12-12T15:37:52.728Z,30.17
2018-12-12T15:40:23.324Z,32.05
2018-12-12T15:42:54.334Z,37.25
2018-12-12T15:45:24.800Z,34.73
2018-12-12T15:47:55.780Z,35.10
2018-12-12T15:50:26.385Z,42.08
2018-12-12T15:52:57.110Z,39.63
2018-12-12T15:55:27.527Z,43.15
2018-12-12T15:57:57.971Z,40.50
2018-12-12T16:00:29.126Z,40.15
2018-12-12T16:02:59.961Z,44.08
2018-12-12T16:05:30.654Z,42.75
2018-12-12T16:08:01.345Z,48.35
2018-12-12T16:10:32.036Z,42.35
2018-12-12T16:13:03.010Z,41.90
2018-12-12T16:15:33.906Z,43.83
2018-12-12T16:18:04.761Z,48.28
2018-12-12T16:20:36.541Z,45.23
2018-12-12T16:23:07.472Z,50.58
2018-12-12T16:25:37.957Z,50.45
2018-12-12T16:28:08.610Z,56.40
2018-12-12T16:30:39.463Z,50.15
2018-12-12T16:33:09.861Z,49.55
2018-12-12T16:35:40.526Z,42.80
2018-12-12T16:38:11.194Z,41.20
2018-12-12T16:40:41.957Z,45.50
2018-12-12T16:43:12.293Z,38.35
2018-12-12T16:45:44.999Z,41.25
2018-12-12T16:48:15.342Z,44.38
2018-12-12T16:50:45.958Z,37.42
2018-12-12T16:53:17.067Z,36.45
2018-12-12T16:55:48.298Z,34.40
2018-12-12T16:58:18.826Z,33.98
2018-12-12T17:00:49.444Z,35.45
2018-12-12T17:03:20.309Z,31.20
2018-12-12T17:05:51.007Z,33.38
2018-12-12T17:08:21.643Z,29.95
2018-12-12T17:10:52.191Z,33.08
2018-12-12T17:13:22.837Z,37.00
2018-12-12T17:15:53.776Z,41.60
2018-12-12T17:18:24.811Z,39.03
2018-12-12T17:20:55.294Z,32.70
2018-12-12T17:23:25.794Z,29.20
2018-12-12T17:25:56.519Z,30.62
2018-12-12T17:28:27.209Z,26.95
2018-12-12T17:30:58.062Z,26.80
2018-12-12T17:33:29.159Z,29.72
2018-12-12T17:36:00.026Z,30.90
2018-12-12T17:38:30.880Z,26.77
2018-12-12T17:41:02.085Z,39.42
2018-12-12T17:43:32.533Z,58.13
2018-12-12T17:46:03.245Z,71.07
2018-12-12T17:48:33.818Z,105.60
2018-12-12T17:51:04.544Z,97.55
2018-12-12T17:53:35.199Z,88.00
2018-12-12T17:56:05.908Z,122.33
2018-12-12T17:58:36.609Z,118.82
2018-12-12T18:01:07.669Z,81.08
2018-12-12T18:03:40.222Z,81.78
2018-12-12T18:06:30.629Z,97.92
2018-12-12T18:09:01.494Z,108.97
2018-12-12T18:11:33.403Z,205.83
2018-12-12T18:14:04.112Z,212.78
2018-12-12T18:16:36.804Z,258.25
2018-12-12T18:19:07.367Z,277.40
2018-12-12T18:21:37.975Z,300.82
2018-12-12T18:24:10.961Z,442.05
2018-12-12T18:26:41.616Z,411.35
2018-12-12T18:29:12.187Z,370.07
2018-12-12T18:31:43.916Z,360.05
2018-12-12T18:34:33.168Z,399.02
2018-12-12T18:37:04.063Z,415.88
2018-12-12T18:39:34.953Z,379.60
2018-12-12T18:42:05.651Z,364.82
2018-12-12T18:44:54.402Z,465.38
2018-12-12T18:47:25.419Z,383.95
2018-12-12T18:49:56.203Z,349.32
2018-12-12T18:52:29.625Z,320.88
2018-12-12T18:55:00.669Z,291.00
2018-12-12T18:57:34.167Z,238.68
2018-12-12T19:00:05.056Z,247.50
2018-12-12T19:02:35.545Z,194.55
2018-12-12T19:05:06.542Z,212.10
2018-12-12T19:07:37.365Z,190.62
2018-12-12T19:10:08.222Z,193.02
2018-12-12T19:12:38.874Z,219.30
2018-12-12T19:15:10.152Z,249.88
2018-12-12T19:17:40.913Z,232.95
2018-12-12T19:20:12.766Z,238.12
2018-12-12T19:22:43.471Z,229.82
2018-12-12T19:25:14.087Z,137.12
2018-12-12T19:27:44.945Z,144.15
2018-12-12T19:30:15.775Z,136.95
2018-12-12T19:32:46.257Z,121.13
2018-12-12T19:35:17.048Z,144.93
2018-12-12T19:37:48.018Z,337.25
2018-12-12T19:40:18.607Z,452.37
2018-12-12T19:42:49.176Z,336.40
2018-12-12T19:45:20.776Z,285.20
2018-12-12T19:47:51.448Z,216.57
2018-12-12T19:50:22.223Z,204.07
2018-12-12T19:52:53.007Z,211.40
2018-12-12T19:55:24.523Z,144.07
2018-12-12T19:57:55.291Z,131.40
2018-12-12T20:00:26.115Z,150.18
2018-12-12T20:02:56.717Z,133.63
2018-12-12T20:05:28.593Z,333.30
2018-12-12T20:07:59.107Z,220.05
2018-12-12T20:10:29.782Z,222.42
2018-12-12T20:13:02.968Z,243.17
2018-12-12T20:15:39.606Z,207.18
2018-12-12T20:18:11.155Z,172.47
2018-12-12T20:20:42.028Z,142.50
2018-12-12T20:23:13.166Z,139.72
2018-12-12T20:25:44.462Z,145.65
2018-12-12T20:28:15.151Z,149.72
2018-12-12T20:30:45.877Z,140.62
2018-12-12T20:33:16.820Z,134.30
2018-12-12T20:35:48.202Z,123.02
2018-12-12T20:38:19.208Z,124.25
2018-12-12T20:40:49.925Z,106.80
2018-12-12T20:43:20.785Z,90.90
2018-12-12T20:45:51.558Z,83.78
2018-12-12T20:48:22.090Z,79.05
2018-12-12T20:50:52.696Z,67.62
2018-12-12T20:53:23.462Z,66.22
2018-12-12T20:55:55.109Z,67.35
2018-12-12T20:58:25.846Z,61.05
2018-12-12T21:00:56.832Z,68.47
2018-12-12T21:03:27.287Z,62.73
2018-12-12T21:05:58.152Z,68.33
2018-12-12T21:08:28.736Z,62.08
2018-12-12T21:11:00.232Z,66.65
2018-12-12T21:13:31.089Z,70.28
2018-12-12T21:16:01.617Z,76.17
2018-12-12T21:18:32.217Z,71.10
2018-12-12T21:21:03.047Z,76.53
2018-12-12T21:23:33.631Z,75.15
2018-12-12T21:26:05.355Z,72.50
2018-12-12T21:28:36.077Z,75.92
2018-12-12T21:31:06.654Z,96.17
2018-12-12T21:33:37.200Z,98.80
2018-12-12T21:36:07.795Z,87.50
2018-12-12T21:38:39.510Z,101.38
2018-12-12T21:41:10.206Z,117.00
2018-12-12T21:43:40.784Z,120.13
2018-12-12T21:46:11.572Z,125.70
2018-12-12T21:48:42.094Z,115.62
2018-12-12T21:51:12.711Z,118.22
2018-12-12T21:53:43.681Z,119.47
2018-12-12T21:56:14.402Z,107.40
2018-12-12T21:58:45.343Z,103.85
2018-12-12T22:01:16.643Z,97.85
2018-12-12T22:03:47.491Z,91.15
2018-12-12T22:06:18.178Z,80.50
2018-12-12T22:08:48.797Z,82.35
2018-12-12T22:11:19.582Z,80.32
2018-12-12T22:13:50.935Z,78.85
2018-12-12T22:16:21.845Z,82.62
2018-12-12T22:18:52.575Z,78.85
2018-12-12T22:21:23.386Z,79.67
2018-12-12T22:23:54.295Z,90.62
2018-12-12T22:26:25.100Z,93.25
2018-12-12T22:28:55.828Z,96.65
2018-12-12T22:31:26.672Z,99.60
2018-12-12T22:33:57.367Z,93.58
2018-12-12T22:36:28.341Z,82.65
2018-12-12T22:38:59.486Z,78.20
2018-12-12T22:41:29.898Z,79.95
2018-12-12T22:44:00.464Z,66.30
2018-12-12T22:46:31.154Z,71.90
2018-12-12T22:49:02.123Z,64.40
2018-12-12T22:51:32.827Z,66.20
2018-12-12T22:54:03.585Z,70.95
2018-12-12T22:56:34.319Z,74.22
2018-12-12T22:59:05.147Z,69.80
2018-12-12T23:01:35.961Z,68.10
2018-12-12T23:04:06.864Z,90.95
2018-12-12T23:06:37.687Z,89.60
2018-12-12T23:09:09.446Z,98.67
2018-12-12T23:11:41.072Z,100.80
2018-12-12T23:14:11.826Z,111.17
2018-12-12T23:16:42.798Z,167.70
2018-12-12T23:19:13.462Z,194.50
2018-12-12T23:21:44.140Z,231.63
2018-12-12T23:24:14.857Z,190.18
2018-12-12T23:26:45.982Z,166.07
2018-12-12T23:29:16.841Z,143.75
2018-12-12T23:31:47.921Z,134.47
2018-12-12T23:34:18.303Z,119.70
2018-12-12T23:36:49.096Z,115.90
2018-12-12T23:39:19.571Z,114.30
2018-12-12T23:41:50.416Z,117.30
2018-12-12T23:44:21.142Z,109.55
2018-12-12T23:46:51.759Z,102.80
2018-12-12T23:49:22.596Z,105.95
2018-12-12T23:51:53.324Z,98.45
2018-12-12T23:54:24.414Z,79.53
2018-12-12T23:56:55.254Z,77.92
2018-12-12T23:59:25.795Z,60.25
